createdAt,value
2019-04-20T00:02:24.067Z,102259.00
2019-04-20T00:07:33.999Z,102259.83
2019-04-20T00:12:54.582Z,102257.36
2019-04-20T00:17:49.648Z,102254.50
2019-04-20T00:23:01.662Z,102254.25
2019-04-20T00:28:24.663Z,102247.73
2019-04-20T00:33:27.351Z,102244.84
2019-04-20T00:38:22.793Z,102246.80
2019-04-20T00:43:32.874Z,102243.52
2019-04-20T00:48:46.241Z,102243.60
2019-04-20T00:53:48.404Z,102247.36
2019-04-20T00:59:02.702Z,102250.10
2019-04-20T01:04:34.590Z,102257.25
2019-04-20T01:09:10.395Z,102253.34
2019-04-20T01:14:17.508Z,102253.98
2019-04-20T01:19:23.255Z,102247.37
2019-04-20T01:24:34.886Z,102252.58
2019-04-20T01:29:41.129Z,102254.45
2019-04-20T01:34:55.357Z,102253.25
2019-04-20T01:39:55.123Z,102254.66
2019-04-20T01:44:58.996Z,102257.52
2019-04-20T01:50:11.377Z,102266.06
2019-04-20T01:55:47.961Z,102263.70
2019-04-20T02:00:42.064Z,102263.14
2019-04-20T02:05:54.472Z,102258.47
2019-04-20T02:10:58.727Z,102259.99
2019-04-20T02:16:13.971Z,102260.40
2019-04-20T02:21:25.836Z,102264.42
2019-04-20T02:26:15.978Z,102260.72
2019-04-20T02:42:19.759Z,102261.97
2019-04-20T02:47:21.401Z,102263.93
2019-04-20T02:52:28.889Z,102260.82
2019-04-20T02:57:34.290Z,102261.39
2019-04-20T03:02:23.599Z,102256.70
2019-04-20T03:07:28.110Z,102260.13
2019-04-20T03:12:59.745Z,102264.91
2019-04-20T03:17:50.790Z,102263.27
2019-04-20T03:28:05.154Z,102257.02
2019-04-20T03:33:23.187Z,102266.77
2019-04-20T03:38:14.244Z,102270.44
2019-04-20T03:43:05.516Z,102268.61
2019-04-20T03:48:29.479Z,102277.16
2019-04-20T03:53:39.262Z,102275.64
2019-04-20T03:58:55.594Z,102275.13
2019-04-20T04:04:25.711Z,102276.02
2019-04-20T04:09:16.205Z,102277.59
2019-04-20T04:14:13.517Z,102276.00
2019-04-20T04:19:25.487Z,102279.50
2019-04-20T04:24:36.771Z,102282.90
2019-04-20T04:29:50.601Z,102285.57
2019-04-20T04:34:59.052Z,102290.36
2019-04-20T04:40:19.599Z,102291.42
2019-04-20T04:45:01.666Z,102291.86
2019-04-20T04:50:09.551Z,102300.64
2019-04-20T04:55:23.730Z,102309.59
2019-04-20T05:00:22.745Z,102316.00
2019-04-20T05:06:03.611Z,102318.88
2019-04-20T05:10:50.364Z,102317.36
2019-04-20T05:16:09.777Z,102321.82
2019-04-20T05:21:25.627Z,102320.38
2019-04-20T05:26:45.968Z,102322.05
2019-04-20T05:31:40.422Z,102322.63
2019-04-20T05:36:55.629Z,102330.63
2019-04-20T05:42:02.910Z,102320.44
2019-04-20T05:47:12.330Z,102318.74
2019-04-20T05:57:30.231Z,102321.13
2019-04-20T06:02:31.637Z,102315.00
2019-04-20T06:07:45.736Z,102304.09
2019-04-20T06:12:48.381Z,102289.46
2019-04-20T06:18:12.352Z,102291.52
2019-04-20T06:23:58.368Z,102287.03
2019-04-20T06:28:50.796Z,102282.98
2019-04-20T06:34:30.650Z,102281.92
2019-04-20T06:44:39.308Z,102271.46
2019-04-20T06:49:37.940Z,102274.36
2019-04-20T06:55:19.734Z,102265.41
2019-04-20T07:00:18.065Z,102260.13
2019-04-20T07:05:26.620Z,102262.64
2019-04-20T07:10:37.628Z,102260.44
2019-04-20T07:15:42.767Z,102252.95
2019-04-20T07:20:59.576Z,102253.00
2019-04-20T07:26:16.884Z,102254.42
2019-04-20T07:31:15.595Z,102259.54
2019-04-20T07:36:35.990Z,102259.12
2019-04-20T07:41:43.813Z,102255.69
2019-04-20T07:51:32.292Z,102254.75
2019-04-20T07:56:55.111Z,102253.39
2019-04-20T08:02:23.781Z,102249.05
2019-04-20T08:07:08.745Z,102242.80
2019-04-20T08:12:58.112Z,102245.61
2019-04-20T08:18:16.100Z,102235.50
2019-04-20T08:23:09.770Z,102240.06
2019-04-20T08:28:01.631Z,102237.71
2019-04-20T08:33:28.479Z,102239.86
2019-04-20T08:38:59.967Z,102241.11
2019-04-20T08:43:58.487Z,102237.62
2019-04-20T08:48:51.972Z,102239.59
2019-04-20T08:53:57.041Z,102233.87
2019-04-20T08:58:46.097Z,102235.94
2019-04-20T09:04:04.660Z,102232.34
2019-04-20T09:09:20.715Z,102229.87
2019-04-20T09:14:21.389Z,102226.05
2019-04-20T09:19:36.528Z,102226.68
2019-04-20T09:25:01.768Z,102221.67
2019-04-20T09:30:00.477Z,102223.19
2019-04-20T09:35:06.798Z,102216.45
2019-04-20T09:40:28.673Z,102214.03
2019-04-20T09:45:28.328Z,102216.59
2019-04-20T09:50:43.566Z,102218.09
2019-04-20T09:55:52.890Z,102221.08
2019-04-20T10:00:59.531Z,102227.99
2019-04-20T10:05:53.784Z,102224.44
2019-04-20T10:10:59.571Z,102232.80
2019-04-20T10:16:05.881Z,102231.31
2019-04-20T10:21:11.879Z,102229.61
2019-04-20T10:26:20.557Z,102232.72
2019-04-20T10:31:26.605Z,102229.05
2019-04-20T10:36:44.113Z,102230.34
2019-04-20T10:41:54.486Z,102216.13
2019-04-20T10:46:56.857Z,102218.73
2019-04-20T10:52:02.672Z,102215.38
2019-04-20T10:57:08.213Z,102212.65
2019-04-20T11:02:14.022Z,102213.30
2019-04-20T11:07:20.686Z,102208.11
2019-04-20T11:12:26.356Z,102204.70
2019-04-20T11:17:33.344Z,102191.91
2019-04-20T11:22:40.197Z,102184.45
2019-04-20T11:27:46.040Z,102176.84
2019-04-20T11:32:51.912Z,102175.87
2019-04-20T11:37:57.573Z,102166.17
2019-04-20T11:43:03.873Z,102164.81
2019-04-20T11:48:09.665Z,102153.01
2019-04-20T11:53:15.381Z,102151.41
2019-04-20T11:58:21.802Z,102132.09
2019-04-20T12:03:33.292Z,102125.95
2019-04-20T12:08:38.536Z,102115.83
2019-04-20T12:13:42.744Z,102120.02
2019-04-20T12:18:48.433Z,102118.45
2019-04-20T12:23:54.126Z,102103.48
2019-04-20T12:28:59.783Z,102098.98
2019-04-20T12:34:06.386Z,102096.25
2019-04-20T12:39:13.240Z,102085.38
2019-04-20T12:44:19.691Z,102077.34
2019-04-20T12:49:25.470Z,102082.33
2019-04-20T12:54:32.127Z,102076.71
2019-04-20T12:59:39.187Z,102073.11
2019-04-20T13:04:45.710Z,102070.22
2019-04-20T13:09:52.714Z,102062.28
2019-04-20T13:15:36.453Z,102048.95
2019-04-20T13:20:42.003Z,102041.09
2019-04-20T13:25:48.758Z,102044.07
2019-04-20T13:30:55.383Z,102030.16
2019-04-20T13:36:01.916Z,102027.13
2019-04-20T13:41:07.498Z,102021.93
2019-04-20T13:46:13.304Z,102018.42
2019-04-20T13:51:18.917Z,102007.37
2019-04-20T13:56:25.905Z,102005.53
2019-04-20T14:01:53.703Z,102003.58
2019-04-20T14:07:01.768Z,101993.41
2019-04-20T14:12:17.344Z,101992.61
2019-04-20T14:17:15.067Z,101981.95
2019-04-20T14:22:20.895Z,101975.16
2019-04-20T14:27:26.656Z,101967.59
2019-04-20T14:32:32.568Z,101971.56
2019-04-20T14:37:39.340Z,101965.12
2019-04-20T14:42:49.730Z,101955.78
2019-04-20T14:47:52.537Z,101949.41
2019-04-20T14:52:59.777Z,101947.44
2019-04-20T14:58:09.728Z,101941.13
2019-04-20T15:03:38.245Z,101935.31
2019-04-20T15:08:43.234Z,101931.77
2019-04-20T15:13:49.028Z,101918.27
2019-04-20T15:19:11.898Z,101915.07
2019-04-20T15:24:17.800Z,101916.23
2019-04-20T15:29:24.244Z,101908.91
2019-04-20T15:34:30.924Z,101922.02
2019-04-20T15:39:37.034Z,101907.91
2019-04-20T15:44:43.035Z,101906.67
2019-04-20T15:49:49.777Z,101899.69
2019-04-20T15:54:55.877Z,101900.72
2019-04-20T16:00:02.706Z,101893.77
2019-04-20T16:05:26.363Z,101895.66
2019-04-20T16:10:32.891Z,101892.56
2019-04-20T16:15:39.930Z,101887.23
2019-04-20T16:20:56.457Z,101889.86
2019-04-20T16:26:08.883Z,101878.44
2019-04-20T16:31:15.454Z,101872.98
2019-04-20T16:36:21.102Z,101873.06
2019-04-20T16:41:26.557Z,101881.63
2019-04-20T16:46:32.158Z,101870.05
2019-04-20T16:51:38.835Z,101868.16
2019-04-20T16:56:44.581Z,101865.44
2019-04-20T17:01:50.598Z,101860.72
2019-04-20T17:07:14.234Z,101865.38
2019-04-20T17:12:19.806Z,101858.33
2019-04-20T17:17:25.459Z,101864.05
2019-04-20T17:22:31.739Z,101860.63
2019-04-20T17:28:15.031Z,101864.00
2019-04-20T17:33:26.547Z,101863.77
2019-04-20T17:38:37.699Z,101866.55
2019-04-20T17:44:00.235Z,101860.72
2019-04-20T17:49:07.781Z,101870.13
2019-04-20T17:54:12.966Z,101872.62
2019-04-20T17:59:20.057Z,101875.16
2019-04-20T18:04:59.024Z,101877.49
2019-04-20T18:09:58.833Z,101881.54
2019-04-20T18:14:58.384Z,101882.96
2019-04-20T18:20:03.294Z,101883.69
2019-04-20T18:25:30.016Z,101876.27
2019-04-20T18:30:39.164Z,101881.08
2019-04-20T18:35:42.179Z,101882.44
2019-04-20T18:40:52.848Z,101883.66
2019-04-20T18:46:10.968Z,101886.39
2019-04-20T18:50:57.469Z,101877.34
2019-04-20T18:56:04.407Z,101884.48
2019-04-20T19:01:10.744Z,101882.48
2019-04-20T19:06:16.434Z,101892.74
2019-04-20T19:11:24.966Z,101886.89
2019-04-20T19:16:50.758Z,101896.29
2019-04-20T19:21:43.961Z,101904.86
2019-04-20T19:26:55.600Z,101902.00
2019-04-20T19:32:15.851Z,101907.99
2019-04-20T19:37:14.169Z,101910.11
2019-04-20T19:42:23.120Z,101912.67
2019-04-20T19:47:41.598Z,101917.39
2019-04-20T19:52:53.164Z,101916.53
2019-04-20T19:57:50.428Z,101904.77
2019-04-20T20:02:39.665Z,101913.11
2019-04-20T20:07:49.366Z,101913.38
2019-04-20T20:12:58.581Z,101914.20
2019-04-20T20:18:20.739Z,101911.70
2019-04-20T20:23:07.957Z,101912.46
2019-04-20T20:28:26.096Z,101915.44
2019-04-20T20:33:39.577Z,101915.52
2019-04-20T20:38:37.005Z,101915.98
2019-04-20T20:43:51.070Z,101917.80
2019-04-20T20:49:04.941Z,101915.08
2019-04-20T20:53:56.496Z,101920.06
2019-04-20T20:59:03.976Z,101926.23
2019-04-20T21:04:04.972Z,101931.57
2019-04-20T21:09:10.558Z,101933.55
2019-04-20T21:14:23.115Z,101933.76
2019-04-20T21:19:41.768Z,101931.86
2019-04-20T21:24:33.830Z,101935.98
2019-04-20T21:29:45.372Z,101935.39
2019-04-20T21:34:51.704Z,101940.12
2019-04-20T21:39:59.419Z,101938.06
2019-04-20T21:45:09.495Z,101936.50
2019-04-20T21:50:24.058Z,101932.97
2019-04-20T21:55:16.229Z,101942.59
2019-04-20T22:00:44.541Z,101941.14
2019-04-20T22:05:46.440Z,101941.55
2019-04-20T22:10:53.398Z,101950.73
2019-04-20T22:16:05.207Z,101951.75
2019-04-20T22:21:19.896Z,101950.95
2019-04-20T22:26:26.618Z,101951.38
2019-04-20T22:31:20.529Z,101948.48
2019-04-20T22:36:35.578Z,101952.41
2019-04-20T22:41:44.679Z,101949.09
2019-04-20T22:46:48.048Z,101945.25
2019-04-20T22:52:05.285Z,101939.52
2019-04-20T22:57:11.821Z,101936.33
2019-04-20T23:02:09.743Z,101933.22
2019-04-20T23:07:16.726Z,101931.80
2019-04-20T23:12:23.803Z,101933.25
2019-04-20T23:17:35.956Z,101934.36
2019-04-20T23:22:40.864Z,101929.80
2019-04-20T23:27:43.862Z,101926.22
2019-04-20T23:32:49.759Z,101923.41
2019-04-20T23:38:06.942Z,101908.36
2019-04-20T23:43:25.122Z,101909.04
2019-04-20T23:48:34.833Z,101906.38
2019-04-20T23:53:48.108Z,101912.41
2019-04-20T23:58:48.271Z,101909.34
